Garwin, Iowa
Current Conditions -  °F | °C
As of 2:53 PM on Sunday 21 Dec 2014 (Local Time) from KMIW Reporting Station
Haze Haze  
Wind Chill: 31°   Ceiling: 1000
Heat Index: 39°   Visibility: 6mi
Dew Point: 37°   Wind: 13mph
Humidity: 93%   Direction: 180°S
Pressure: 29.83"   Gusts: NA
Location:  42.09°N, 92.68°W
Report Text: KMIW 212053Z AUTO 18011KT 6SM BR OVC010 04/03 A2983 RMK AO2 CIG 007V013 SLP108 T00390028 56024
Loading
Personal Weather Stations






























Interactive Weather Map New forecast layout! Learn more

10-Day Weather Forecast

Advertisements
Track Severe Weather on mobile